Grand Rapids, MI (49525)

6:41 PM EDT on July 30, 2016 (GMT -0400)
NE Grand Rapids | | Change Station

Elev 840 ft 42.98 °N, 85.59 °W | Updated 19 seconds ago

Overcast
Overcast
70.9 °F
Feels Like 71 °F
N
3.3
Wind Variable Wind from East
Gusts 7.8 mph

Today
High -- | Low -- °F
--% Chance of Precip.
Yesterday
High -- | Low -- °F
Precip. -- in
Pressure 30.00 in
Visibility 10.0 miles
Clouds Mostly Cloudy 1600 ft
Overcast 2300 ft
Heat Index 71 °F
Dew Point 65 °F
Humidity 82%
Rainfall 0.38 in
Snow Depth Not available.
6:31 AM 9:05 PM
Waning Crescent, 10% visible
METAR KGRR 302153Z 07008KT 10SM BKN016 OVC023 21/18 A3001 RMK AO2 SLP159 T02110178 $
Pressure 30.00 in
Visibility 10.0 miles
Clouds Mostly Cloudy 1600 ft
Overcast 2300 ft
Heat Index 71 °F
Dew Point 65 °F
Humidity 82%
Rainfall 0.38 in
Snow Depth Not available.
6:31 AM 9:05 PM
Waning Crescent, 10% visible
METAR KGRR 302153Z 07008KT 10SM BKN016 OVC023 21/18 A3001 RMK AO2 SLP159 T02110178 $

10-Day Weather Forecast

Almanac

Astronomy

Jul. 30, 2016 Rise Set
Actual Time
Civil Twilight
Nautical Twilight
Astronomical Twilight
Moon
Length of Visible Light
Length of Day
Tomorrow will be .
, % of the Moon is Illuminated

Today's Extremes

State Highs State Lows

Community

WunderPhotos

Upload Photos

1,928,670 photos uploaded!

WunderBlog® & News

Nearby

Air Quality

  Air Quality AQ Index Pollutant
Not available.

Snow Depth

Station Depth Elevation

Earthquake Activity

City Distance Mag. Time & Date
Minimum magnitude displayed is 2.5.

Coastal Water Temperatures

Place Temperature

Stations

Nearby Weather Stations

Station Location Temp. Windchill Dew Point Humidity Wind Precip. Elev Updated Type
                   

Watches & Warnings

There are currently no watches in effect.